createdAt,value
2019-02-18T00:00:11.334Z,51.60
2019-02-18T00:02:39.010Z,52.90
2019-02-18T00:05:06.650Z,56.77
2019-02-18T00:07:34.364Z,59.90
2019-02-18T00:10:02.057Z,89.27
2019-02-18T00:12:29.722Z,68.00
2019-02-18T00:14:57.368Z,78.77
2019-02-18T00:17:25.138Z,69.00
2019-02-18T00:19:52.813Z,64.97
2019-02-18T00:22:21.758Z,65.87
2019-02-18T00:24:50.091Z,67.70
2019-02-18T00:27:18.184Z,85.53
2019-02-18T00:29:46.287Z,84.27
2019-02-18T00:32:14.465Z,75.03
2019-02-18T00:34:42.134Z,75.13
2019-02-18T00:37:09.804Z,70.80
2019-02-18T00:39:37.810Z,68.87
2019-02-18T00:42:05.896Z,69.87
2019-02-18T00:44:33.658Z,61.47
2019-02-18T00:47:01.648Z,58.63
2019-02-18T00:49:29.335Z,70.97
2019-02-18T00:51:57.077Z,65.87
2019-02-18T00:54:24.756Z,67.57
2019-02-18T00:56:52.431Z,76.77
2019-02-18T00:59:20.105Z,80.67
2019-02-18T01:01:47.793Z,89.40
2019-02-18T01:04:15.895Z,81.13
2019-02-18T01:06:43.942Z,83.70
2019-02-18T01:09:12.082Z,85.13
2019-02-18T01:11:39.762Z,84.67
2019-02-18T01:14:07.722Z,81.30
2019-02-18T01:16:35.957Z,77.00
2019-02-18T01:19:04.064Z,80.33
2019-02-18T01:21:32.102Z,87.37
2019-02-18T01:24:00.313Z,87.37
2019-02-18T01:26:28.426Z,103.43
2019-02-18T01:28:56.101Z,99.43
2019-02-18T01:31:24.234Z,94.57
2019-02-18T01:33:51.946Z,95.97
2019-02-18T01:36:19.614Z,95.63
2019-02-18T01:38:47.327Z,89.00
2019-02-18T01:41:15.063Z,87.00
2019-02-18T01:43:43.023Z,87.40
2019-02-18T01:46:11.023Z,97.90
2019-02-18T01:48:39.138Z,102.67
2019-02-18T01:51:07.340Z,116.57
2019-02-18T01:53:35.386Z,103.73
2019-02-18T01:56:03.795Z,100.47
2019-02-18T01:58:31.955Z,91.93
2019-02-18T02:00:59.587Z,87.03
2019-02-18T02:03:27.388Z,87.53
2019-02-18T02:05:55.019Z,85.40
2019-02-18T02:08:23.195Z,86.80
2019-02-18T02:10:50.948Z,92.47
2019-02-18T02:13:31.542Z,87.73
2019-02-18T02:16:00.054Z,92.77
2019-02-18T02:18:27.734Z,87.47
2019-02-18T02:20:55.413Z,88.87
2019-02-18T02:23:23.109Z,81.63
2019-02-18T02:25:50.823Z,88.10
2019-02-18T02:28:18.896Z,88.50
2019-02-18T02:30:46.597Z,92.93
2019-02-18T02:33:14.343Z,84.87
2019-02-18T02:35:42.462Z,83.77
2019-02-18T02:38:10.234Z,85.53
2019-02-18T02:40:37.907Z,86.83
2019-02-18T02:43:05.955Z,86.10
2019-02-18T02:45:33.640Z,85.30
2019-02-18T02:48:01.344Z,84.40
2019-02-18T02:50:29.329Z,87.17
2019-02-18T02:52:57.072Z,90.13
2019-02-18T02:55:24.811Z,87.23
2019-02-18T02:57:52.511Z,85.23
2019-02-18T03:00:20.226Z,84.87
2019-02-18T03:02:47.906Z,86.00
2019-02-18T03:05:15.656Z,86.97
2019-02-18T03:07:43.301Z,88.47
2019-02-18T03:10:11.992Z,83.33
2019-02-18T03:12:39.738Z,85.10
2019-02-18T03:15:08.854Z,82.13
2019-02-18T03:17:36.901Z,83.47
2019-02-18T03:20:06.912Z,83.78
2019-02-18T03:22:34.577Z,85.67
2019-02-18T03:25:06.814Z,80.33
2019-02-18T03:27:34.534Z,84.63
2019-02-18T03:30:20.806Z,86.00
2019-02-18T03:32:48.500Z,83.07
2019-02-18T03:35:16.510Z,86.33
2019-02-18T03:37:44.281Z,82.77
2019-02-18T03:40:12.368Z,83.00
2019-02-18T03:42:40.075Z,85.70
2019-02-18T03:45:08.075Z,83.57
2019-02-18T03:47:36.248Z,82.60
2019-02-18T03:50:04.074Z,83.47
2019-02-18T03:52:31.786Z,81.27
2019-02-18T03:54:59.659Z,83.83
2019-02-18T03:57:27.755Z,82.93
2019-02-18T03:59:55.440Z,82.17
2019-02-18T04:02:23.554Z,81.17
2019-02-18T04:04:51.622Z,82.90
2019-02-18T04:07:19.401Z,79.87
2019-02-18T04:09:47.413Z,81.50
2019-02-18T04:12:15.161Z,81.03
2019-02-18T04:14:43.161Z,81.43
2019-02-18T04:17:11.260Z,82.77
2019-02-18T04:19:38.944Z,78.47
2019-02-18T04:22:07.033Z,76.90
2019-02-18T04:24:35.200Z,78.70
2019-02-18T04:27:02.864Z,76.23
2019-02-18T04:29:30.627Z,75.20
2019-02-18T04:31:58.353Z,76.87
2019-02-18T04:34:26.098Z,78.23
2019-02-18T04:36:54.199Z,81.53
2019-02-18T04:39:21.903Z,82.10
2019-02-18T04:41:49.573Z,79.37
2019-02-18T04:44:17.696Z,82.20
2019-02-18T04:46:45.813Z,80.37
2019-02-18T04:49:13.532Z,80.87
2019-02-18T04:51:41.206Z,78.43
2019-02-18T04:54:08.923Z,79.87
2019-02-18T04:56:37.043Z,78.97
2019-02-18T04:59:05.139Z,79.53
2019-02-18T05:01:33.163Z,86.80
2019-02-18T05:04:00.903Z,80.83
2019-02-18T05:06:28.615Z,85.30
2019-02-18T05:09:05.103Z,82.10
2019-02-18T05:11:26.348Z,81.17
2019-02-18T05:13:54.025Z,85.63
2019-02-18T05:16:22.142Z,82.47
2019-02-18T05:18:49.817Z,79.70
2019-02-18T05:21:17.547Z,79.37
2019-02-18T05:23:45.741Z,80.80
2019-02-18T05:26:13.745Z,78.80
2019-02-18T05:28:41.527Z,82.13
2019-02-18T05:31:09.610Z,83.37
2019-02-18T05:33:37.387Z,80.33
2019-02-18T05:36:05.626Z,75.87
2019-02-18T05:38:33.321Z,75.87
2019-02-18T05:41:01.394Z,78.60
2019-02-18T05:43:29.156Z,75.40
2019-02-18T05:45:56.827Z,75.53
2019-02-18T05:48:24.991Z,78.33
2019-02-18T05:50:52.635Z,79.13
2019-02-18T05:53:20.883Z,81.23
2019-02-18T05:55:48.578Z,81.33
2019-02-18T05:58:16.374Z,81.50
2019-02-18T06:00:44.405Z,79.27
2019-02-18T06:03:12.508Z,77.17
2019-02-18T06:05:40.262Z,74.03
2019-02-18T06:08:07.980Z,75.63
2019-02-18T06:10:35.624Z,73.10
2019-02-18T06:13:03.278Z,72.97
2019-02-18T06:15:31.009Z,69.60
2019-02-18T06:17:58.728Z,75.33
2019-02-18T06:20:26.390Z,80.97
2019-02-18T06:22:54.127Z,76.13
2019-02-18T06:25:21.843Z,73.53
2019-02-18T06:27:51.542Z,69.40
2019-02-18T06:30:19.327Z,68.63
2019-02-18T06:32:47.049Z,70.40
2019-02-18T06:35:15.021Z,69.30
2019-02-18T06:37:42.792Z,70.03
2019-02-18T06:40:10.935Z,79.20
2019-02-18T06:42:38.929Z,85.03
2019-02-18T06:45:26.279Z,86.03
2019-02-18T06:47:53.920Z,81.40
2019-02-18T06:50:22.008Z,96.50
2019-02-18T06:52:50.183Z,83.87
2019-02-18T06:55:18.269Z,101.10
2019-02-18T06:58:03.771Z,107.20
2019-02-18T07:00:45.747Z,99.43
2019-02-18T07:03:18.673Z,85.87
2019-02-18T07:06:00.124Z,73.20
2019-02-18T07:08:44.854Z,65.70
2019-02-18T07:11:14.092Z,66.13
2019-02-18T07:13:42.239Z,67.53
2019-02-18T07:16:09.910Z,66.63
2019-02-18T07:18:37.596Z,63.37
2019-02-18T07:21:05.855Z,62.70
2019-02-18T07:23:33.558Z,66.97
2019-02-18T07:26:01.508Z,64.50
2019-02-18T07:28:29.721Z,64.73
2019-02-18T07:30:57.756Z,65.03
2019-02-18T07:33:25.404Z,66.90
2019-02-18T07:35:53.503Z,70.67
2019-02-18T07:38:21.222Z,64.10
2019-02-18T07:40:48.894Z,62.13
2019-02-18T07:43:16.600Z,69.03
2019-02-18T07:45:44.290Z,65.80
2019-02-18T07:48:12.022Z,58.67
2019-02-18T07:50:40.093Z,55.40
2019-02-18T07:53:07.736Z,51.33
2019-02-18T07:55:35.477Z,49.77
2019-02-18T07:58:03.132Z,51.57
2019-02-18T08:00:30.845Z,48.43
2019-02-18T08:02:58.514Z,49.93
2019-02-18T08:05:26.296Z,45.80
2019-02-18T08:07:54.508Z,47.17
2019-02-18T08:10:22.301Z,47.77
2019-02-18T08:12:49.981Z,47.53
2019-02-18T08:15:17.694Z,46.00
2019-02-18T08:17:45.633Z,46.40
2019-02-18T08:20:13.337Z,45.67
2019-02-18T08:22:41.069Z,45.80
2019-02-18T08:25:12.517Z,42.87
2019-02-18T08:27:40.331Z,45.43
2019-02-18T08:30:09.528Z,44.73
2019-02-18T08:32:37.612Z,42.50
2019-02-18T08:35:06.207Z,50.17
2019-02-18T08:37:33.924Z,46.27
2019-02-18T08:40:02.042Z,46.67
2019-02-18T08:42:30.208Z,41.83
2019-02-18T08:44:58.286Z,41.40
2019-02-18T08:47:26.259Z,51.63
2019-02-18T08:49:54.289Z,31.50
2019-02-18T08:52:21.998Z,34.83
2019-02-18T08:54:56.357Z,33.33
2019-02-18T08:57:18.989Z,33.70
2019-02-18T08:59:47.081Z,37.43
2019-02-18T09:02:15.123Z,37.17
2019-02-18T09:04:43.197Z,37.83
2019-02-18T09:07:11.373Z,36.17
2019-02-18T09:09:39.033Z,32.10
2019-02-18T09:12:06.775Z,35.50
2019-02-18T09:14:34.814Z,31.57
2019-02-18T09:17:02.641Z,35.90
2019-02-18T09:19:30.320Z,38.37
2019-02-18T09:21:59.524Z,36.20
2019-02-18T09:24:28.953Z,49.80
2019-02-18T09:26:56.602Z,37.50
2019-02-18T09:29:24.950Z,37.80
2019-02-18T09:31:52.702Z,37.40
2019-02-18T09:34:20.781Z,35.87
2019-02-18T09:36:48.832Z,34.93
2019-02-18T09:39:17.982Z,35.87
2019-02-18T09:41:46.070Z,36.43
2019-02-18T09:44:15.518Z,32.80
2019-02-18T09:46:45.267Z,33.90
2019-02-18T09:49:12.930Z,35.60
2019-02-18T09:51:41.077Z,33.47
2019-02-18T09:54:09.136Z,31.90
2019-02-18T09:56:37.057Z,32.87
2019-02-18T09:59:05.198Z,32.63
2019-02-18T10:01:32.884Z,30.57
2019-02-18T10:04:00.558Z,30.83
2019-02-18T10:06:28.799Z,30.73
2019-02-18T10:08:56.846Z,35.97
2019-02-18T10:11:24.918Z,34.40
2019-02-18T10:13:52.924Z,27.97
2019-02-18T10:16:20.953Z,31.20
2019-02-18T10:18:49.100Z,30.37
2019-02-18T10:21:16.790Z,31.50
2019-02-18T10:23:44.739Z,30.67
2019-02-18T10:26:12.409Z,33.30
2019-02-18T10:28:40.490Z,28.97
2019-02-18T10:31:08.517Z,29.80
2019-02-18T10:33:36.199Z,30.83
2019-02-18T10:36:04.164Z,31.70
2019-02-18T10:38:31.913Z,28.57
2019-02-18T10:41:06.402Z,29.30
2019-02-18T10:43:32.463Z,30.37
2019-02-18T10:45:58.926Z,29.37
2019-02-18T10:48:27.261Z,34.27
2019-02-18T10:50:55.271Z,31.63
2019-02-18T10:53:22.941Z,28.27
2019-02-18T10:55:50.869Z,32.40
2019-02-18T10:58:18.553Z,30.73
2019-02-18T11:00:46.265Z,28.20
2019-02-18T11:03:14.359Z,27.57
2019-02-18T11:05:42.021Z,28.63
2019-02-18T11:08:09.664Z,29.47
2019-02-18T11:10:37.399Z,29.13
2019-02-18T11:13:05.108Z,30.20
2019-02-18T11:15:33.334Z,29.90
2019-02-18T11:18:01.453Z,25.07
2019-02-18T11:20:29.198Z,26.20
2019-02-18T11:22:57.266Z,25.37
2019-02-18T11:25:24.965Z,26.80
2019-02-18T11:27:52.650Z,22.93
2019-02-18T11:30:20.560Z,25.27
2019-02-18T11:32:48.638Z,25.67
2019-02-18T11:35:16.340Z,27.50
2019-02-18T11:37:44.042Z,24.17
2019-02-18T11:40:13.545Z,22.67
2019-02-18T11:42:41.212Z,23.10
2019-02-18T11:45:10.842Z,18.83
2019-02-18T11:47:38.983Z,24.37
2019-02-18T11:50:07.959Z,23.40
2019-02-18T11:52:35.630Z,23.80
2019-02-18T11:55:04.066Z,20.73
2019-02-18T11:57:31.819Z,22.93
2019-02-18T12:00:00.157Z,27.37
2019-02-18T12:02:27.833Z,23.30
2019-02-18T12:04:55.898Z,24.83
2019-02-18T12:07:23.943Z,21.17
2019-02-18T12:09:51.610Z,23.20
2019-02-18T12:12:19.624Z,23.87
2019-02-18T12:14:47.297Z,23.87
2019-02-18T12:17:20.504Z,23.63
2019-02-18T12:19:45.464Z,24.30
2019-02-18T12:22:13.144Z,23.30
2019-02-18T12:24:41.260Z,21.30
2019-02-18T12:27:09.658Z,20.27
2019-02-18T12:29:37.688Z,21.43
2019-02-18T12:32:05.428Z,19.83
2019-02-18T12:34:33.539Z,21.17
2019-02-18T12:37:01.613Z,21.20
2019-02-18T12:39:29.396Z,19.03
2019-02-18T12:41:57.466Z,20.73
2019-02-18T12:44:27.422Z,18.37
2019-02-18T12:46:54.585Z,18.90
2019-02-18T12:49:22.262Z,21.03
2019-02-18T12:51:50.395Z,21.40
2019-02-18T12:54:18.744Z,22.03
2019-02-18T12:56:46.762Z,18.40
2019-02-18T12:59:14.493Z,19.00
2019-02-18T13:01:42.133Z,20.53
2019-02-18T13:04:09.792Z,21.00
2019-02-18T13:06:37.855Z,21.13
2019-02-18T13:09:06.066Z,17.10
2019-02-18T13:11:34.105Z,12.20
2019-02-18T13:14:02.160Z,9.07
2019-02-18T13:16:30.122Z,8.73
2019-02-18T13:18:58.358Z,8.07
2019-02-18T13:21:26.469Z,10.40
2019-02-18T13:23:54.171Z,11.40
2019-02-18T13:26:21.860Z,9.93
2019-02-18T13:28:49.912Z,9.87
2019-02-18T13:31:17.598Z,10.27
2019-02-18T13:33:45.858Z,9.37
2019-02-18T13:36:14.586Z,10.10
2019-02-18T13:38:42.655Z,11.83
2019-02-18T13:41:10.677Z,12.83
2019-02-18T13:43:38.904Z,11.57
2019-02-18T13:46:06.593Z,10.57
2019-02-18T13:48:34.375Z,10.13
2019-02-18T13:51:02.386Z,10.33
2019-02-18T13:53:30.058Z,11.53
2019-02-18T13:55:58.227Z,10.43
2019-02-18T13:58:26.276Z,12.27
2019-02-18T14:00:53.993Z,13.37
2019-02-18T14:03:22.133Z,13.53
2019-02-18T14:05:50.259Z,13.37
2019-02-18T14:08:17.950Z,12.73
2019-02-18T14:10:46.053Z,13.70
2019-02-18T14:13:14.102Z,12.37
2019-02-18T14:15:41.774Z,10.70
2019-02-18T14:18:09.476Z,11.70
2019-02-18T14:20:37.963Z,11.83
2019-02-18T14:23:05.663Z,12.53
2019-02-18T14:25:33.582Z,13.30
2019-02-18T14:28:01.696Z,17.30
2019-02-18T14:30:29.377Z,25.50
2019-02-18T14:32:57.120Z,15.00
2019-02-18T14:35:26.363Z,49.30
2019-02-18T14:40:18.810Z,22.87
2019-02-18T14:42:46.693Z,63.00
2019-02-18T14:45:14.975Z,96.27
2019-02-18T14:47:42.830Z,92.40
2019-02-18T14:50:10.601Z,36.83
2019-02-18T14:52:38.362Z,21.77
2019-02-18T14:55:07.339Z,21.43
2019-02-18T14:57:35.239Z,53.07
2019-02-18T15:00:03.208Z,29.70
2019-02-18T15:02:30.966Z,37.37
2019-02-18T15:04:58.721Z,19.60
2019-02-18T15:07:26.501Z,186.53
2019-02-18T15:09:54.271Z,82.93
2019-02-18T15:12:22.334Z,26.10
2019-02-18T15:14:50.093Z,16.47
2019-02-18T15:17:17.962Z,13.17
2019-02-18T15:19:45.842Z,13.20
2019-02-18T15:22:13.703Z,13.37
2019-02-18T15:24:41.462Z,14.77
2019-02-18T15:27:09.396Z,14.83
2019-02-18T15:29:37.084Z,15.07
2019-02-18T15:32:05.586Z,14.83
2019-02-18T15:34:33.330Z,16.10
2019-02-18T15:37:01.100Z,14.23
2019-02-18T15:39:28.980Z,16.33
2019-02-18T15:41:56.854Z,15.83
2019-02-18T15:44:24.927Z,16.10
2019-02-18T15:46:52.791Z,15.27
2019-02-18T15:49:20.556Z,15.07
2019-02-18T15:51:48.283Z,17.00
2019-02-18T15:54:16.309Z,16.37
2019-02-18T15:56:44.061Z,15.97
2019-02-18T15:59:11.838Z,14.03
2019-02-18T16:01:40.112Z,13.73
2019-02-18T16:04:07.977Z,13.10
2019-02-18T16:06:35.732Z,13.03
2019-02-18T16:09:04.633Z,14.13
2019-02-18T16:11:32.502Z,15.83
2019-02-18T16:14:00.275Z,16.90
2019-02-18T16:16:27.971Z,16.37
2019-02-18T16:18:56.124Z,15.73
2019-02-18T16:21:23.750Z,16.93
2019-02-18T16:23:51.537Z,20.37
2019-02-18T16:26:19.411Z,24.40
2019-02-18T16:28:47.161Z,27.67
2019-02-18T16:31:14.931Z,28.03
2019-02-18T16:33:42.653Z,34.83
2019-02-18T16:36:10.566Z,26.77
2019-02-18T16:38:38.332Z,23.83
2019-02-18T16:41:06.109Z,27.40
2019-02-18T16:43:34.260Z,27.13
2019-02-18T16:46:02.038Z,27.37
2019-02-18T16:48:29.997Z,25.03
2019-02-18T16:50:58.195Z,24.13
2019-02-18T16:53:25.966Z,28.63
2019-02-18T16:55:53.628Z,35.03
2019-02-18T16:58:21.593Z,43.23
2019-02-18T17:00:57.222Z,50.13
2019-02-18T17:03:19.062Z,59.67
2019-02-18T17:05:47.039Z,101.63
2019-02-18T17:08:15.115Z,104.80
2019-02-18T17:10:42.986Z,81.07
2019-02-18T17:13:10.737Z,72.63
2019-02-18T17:15:38.616Z,61.33
2019-02-18T17:18:06.389Z,57.50
2019-02-18T17:20:34.250Z,61.70
2019-02-18T17:23:02.013Z,66.73
2019-02-18T17:25:30.088Z,85.43
2019-02-18T17:27:57.845Z,61.63
2019-02-18T17:30:25.718Z,65.23
2019-02-18T17:32:53.468Z,33.33
2019-02-18T17:35:21.356Z,65.77
2019-02-18T17:37:49.104Z,51.43
2019-02-18T17:40:16.894Z,45.73
2019-02-18T17:42:45.025Z,34.63
2019-02-18T17:45:16.599Z,35.90
2019-02-18T17:47:44.384Z,36.27
2019-02-18T17:50:13.374Z,33.10
2019-02-18T17:52:41.149Z,36.30
2019-02-18T17:55:10.309Z,41.23
2019-02-18T17:57:38.401Z,39.40
2019-02-18T18:00:07.719Z,34.70
2019-02-18T18:02:35.467Z,33.67
2019-02-18T18:05:03.248Z,32.93
2019-02-18T18:07:30.883Z,36.63
2019-02-18T18:09:58.685Z,37.67
2019-02-18T18:12:26.545Z,37.67
2019-02-18T18:14:54.521Z,35.00
2019-02-18T18:17:22.394Z,33.97
2019-02-18T18:19:50.078Z,36.20
2019-02-18T18:22:17.703Z,36.93
2019-02-18T18:24:45.590Z,37.10
2019-02-18T18:27:13.353Z,38.30
2019-02-18T18:29:41.121Z,36.80
2019-02-18T18:32:09.188Z,33.43
2019-02-18T18:34:36.936Z,32.47
2019-02-18T18:37:04.827Z,34.67
2019-02-18T18:39:32.481Z,35.43
2019-02-18T18:42:00.346Z,37.90
2019-02-18T18:44:28.117Z,37.37
2019-02-18T18:46:55.984Z,38.73
2019-02-18T18:49:23.763Z,37.33
2019-02-18T18:51:51.520Z,39.03
2019-02-18T18:54:19.274Z,37.97
2019-02-18T18:56:47.156Z,38.33
2019-02-18T18:59:15.018Z,38.60
2019-02-18T19:01:42.871Z,39.97
2019-02-18T19:04:10.946Z,41.17
2019-02-18T19:06:39.031Z,44.23
2019-02-18T19:09:06.784Z,44.40
2019-02-18T19:11:34.671Z,49.40
2019-02-18T19:14:02.428Z,43.23
2019-02-18T19:16:30.207Z,42.17
2019-02-18T19:18:57.837Z,40.50
2019-02-18T19:21:25.483Z,36.47
2019-02-18T19:23:53.394Z,36.43
2019-02-18T19:26:21.262Z,38.13
2019-02-18T19:28:48.994Z,38.20
2019-02-18T19:31:16.903Z,36.90
2019-02-18T19:33:44.674Z,34.50
2019-02-18T19:36:12.843Z,37.77
2019-02-18T19:38:40.603Z,35.50
2019-02-18T19:41:08.356Z,35.60
2019-02-18T19:43:36.151Z,34.53
2019-02-18T19:46:03.895Z,33.57
2019-02-18T19:48:31.686Z,35.10
2019-02-18T19:50:59.445Z,36.63
2019-02-18T19:53:27.286Z,36.93
2019-02-18T19:55:55.175Z,42.37
2019-02-18T19:58:22.863Z,41.47
2019-02-18T20:00:50.707Z,41.77
2019-02-18T20:03:18.575Z,39.30
2019-02-18T20:05:46.247Z,38.87
2019-02-18T20:08:14.601Z,39.47
2019-02-18T20:10:42.378Z,36.47
2019-02-18T20:13:10.028Z,35.07
2019-02-18T20:15:37.795Z,35.70
2019-02-18T20:18:05.683Z,38.13
2019-02-18T20:20:33.341Z,44.23
2019-02-18T20:23:01.107Z,46.47
2019-02-18T20:25:29.075Z,47.73
2019-02-18T20:27:56.941Z,45.37
2019-02-18T20:30:33.708Z,41.80
2019-02-18T20:33:01.475Z,48.10
2019-02-18T20:35:29.152Z,46.87
2019-02-18T20:37:56.918Z,38.40
2019-02-18T20:40:24.771Z,34.60
2019-02-18T20:42:52.566Z,40.33
2019-02-18T20:45:20.421Z,58.00
2019-02-18T20:47:48.187Z,54.27
2019-02-18T20:50:15.832Z,36.53
2019-02-18T20:52:43.724Z,33.50
2019-02-18T20:55:12.514Z,34.03
2019-02-18T20:57:40.188Z,32.27
2019-02-18T21:00:11.028Z,32.00
2019-02-18T21:02:38.685Z,31.03
2019-02-18T21:05:06.644Z,28.37
2019-02-18T21:07:34.306Z,27.33
2019-02-18T21:10:02.181Z,26.07
2019-02-18T21:12:30.352Z,23.83
2019-02-18T21:14:58.220Z,24.47
2019-02-18T21:17:25.980Z,24.90
2019-02-18T21:19:53.962Z,26.40
2019-02-18T21:22:21.725Z,25.57
2019-02-18T21:24:49.359Z,25.70
2019-02-18T21:27:17.259Z,26.00
2019-02-18T21:29:45.127Z,24.93
2019-02-18T21:32:12.897Z,20.90
2019-02-18T21:34:40.654Z,26.77
2019-02-18T21:37:08.367Z,23.40
2019-02-18T21:39:36.081Z,21.13
2019-02-18T21:42:03.857Z,21.00
2019-02-18T21:44:31.723Z,21.10
2019-02-18T21:46:59.485Z,21.47
2019-02-18T21:49:27.261Z,23.27
2019-02-18T21:51:55.119Z,22.60
2019-02-18T21:54:23.097Z,22.57
2019-02-18T21:56:50.842Z,21.50
2019-02-18T21:59:18.518Z,26.07
2019-02-18T22:01:46.803Z,21.33
2019-02-18T22:04:14.669Z,27.30
2019-02-18T22:06:42.646Z,22.10
2019-02-18T22:09:10.396Z,22.13
2019-02-18T22:11:38.069Z,21.30
2019-02-18T22:14:05.847Z,20.53
2019-02-18T22:16:33.560Z,19.40
2019-02-18T22:19:01.777Z,19.67
2019-02-18T22:21:29.469Z,20.47
2019-02-18T22:23:57.207Z,20.73
2019-02-18T22:26:25.074Z,21.53
2019-02-18T22:28:52.943Z,21.10
2019-02-18T22:31:20.606Z,21.63
2019-02-18T22:33:48.376Z,21.67
2019-02-18T22:36:16.237Z,21.87
2019-02-18T22:38:44.192Z,20.47
2019-02-18T22:41:11.978Z,21.47
2019-02-18T22:43:39.718Z,21.43
2019-02-18T22:46:07.518Z,21.40
2019-02-18T22:48:35.298Z,20.50
2019-02-18T22:51:03.036Z,21.30
2019-02-18T22:53:30.801Z,21.47
2019-02-18T22:55:58.983Z,21.10
2019-02-18T22:58:26.851Z,21.30
2019-02-18T23:00:56.197Z,20.77
2019-02-18T23:03:23.872Z,20.77
2019-02-18T23:05:51.786Z,21.57
2019-02-18T23:08:19.533Z,21.80
2019-02-18T23:10:47.317Z,21.00
2019-02-18T23:13:15.499Z,22.70
2019-02-18T23:15:43.256Z,21.27
2019-02-18T23:18:11.061Z,21.27
2019-02-18T23:20:38.773Z,21.70
2019-02-18T23:23:06.484Z,21.30
2019-02-18T23:25:34.318Z,21.53
2019-02-18T23:28:01.980Z,22.10
2019-02-18T23:30:29.656Z,20.63
2019-02-18T23:32:57.615Z,22.10
2019-02-18T23:35:25.587Z,20.90
2019-02-18T23:37:53.461Z,20.43
2019-02-18T23:40:21.329Z,21.53
2019-02-18T23:42:48.989Z,22.13
2019-02-18T23:45:16.758Z,22.40
2019-02-18T23:47:44.621Z,22.73
2019-02-18T23:50:12.615Z,22.10
2019-02-18T23:52:40.461Z,22.53
2019-02-18T23:55:08.194Z,21.83
2019-02-18T23:57:35.892Z,22.63
